sensor_id;sensor_type;location;lat;lon;timestamp;pressure;altitude;pressure_sealevel;temperature;humidity
30708;BME280;17458;48.958;8.284;2023-07-24T00:00:33;99536.13;;;22.30;70.73
30708;BME280;17458;48.958;8.284;2023-07-24T00:03:20;99523.50;;;22.31;70.93
30708;BME280;17458;48.958;8.284;2023-07-24T00:06:04;99527.41;;;21.99;70.28
30708;BME280;17458;48.958;8.284;2023-07-24T00:08:47;99527.28;;;22.14;69.80
30708;BME280;17458;48.958;8.284;2023-07-24T00:11:31;99520.81;;;22.27;69.34
30708;BME280;17458;48.958;8.284;2023-07-24T00:14:16;99515.44;;;22.24;69.65
30708;BME280;17458;48.958;8.284;2023-07-24T00:17:00;99519.13;;;22.17;70.73
30708;BME280;17458;48.958;8.284;2023-07-24T00:19:43;99530.81;;;22.18;71.49
30708;BME280;17458;48.958;8.284;2023-07-24T00:22:28;99530.75;;;22.25;70.76
30708;BME280;17458;48.958;8.284;2023-07-24T00:25:11;99534.34;;;22.27;70.89
30708;BME280;17458;48.958;8.284;2023-07-24T00:27:55;99520.91;;;22.18;70.26
30708;BME280;17458;48.958;8.284;2023-07-24T00:30:39;99526.44;;;22.06;69.42
30708;BME280;17458;48.958;8.284;2023-07-24T00:33:24;99522.81;;;22.09;69.47
30708;BME280;17458;48.958;8.284;2023-07-24T00:36:08;99522.81;;;22.06;69.25
30708;BME280;17458;48.958;8.284;2023-07-24T00:38:52;99512.09;;;22.01;68.86
30708;BME280;17458;48.958;8.284;2023-07-24T00:41:36;99509.28;;;22.09;68.84
30708;BME280;17458;48.958;8.284;2023-07-24T00:44:20;99498.59;;;21.92;68.56
30708;BME280;17458;48.958;8.284;2023-07-24T00:47:05;99500.41;;;21.90;69.07
30708;BME280;17458;48.958;8.284;2023-07-24T00:49:49;99495.94;;;21.89;68.95
30708;BME280;17458;48.958;8.284;2023-07-24T00:52:34;99495.88;;;21.93;69.32
30708;BME280;17458;48.958;8.284;2023-07-24T00:55:18;99499.56;;;21.88;68.82
30708;BME280;17458;48.958;8.284;2023-07-24T00:58:03;99490.56;;;21.84;69.17
30708;BME280;17458;48.958;8.284;2023-07-24T01:00:49;99480.69;;;21.82;69.25
30708;BME280;17458;48.958;8.284;2023-07-24T01:03:34;99476.28;;;21.70;69.56
30708;BME280;17458;48.958;8.284;2023-07-24T01:06:21;99472.59;;;21.80;69.86
30708;BME280;17458;48.958;8.284;2023-07-24T01:09:05;99466.28;;;21.80;70.04
30708;BME280;17458;48.958;8.284;2023-07-24T01:11:57;99472.53;;;21.86;70.06
30708;BME280;17458;48.958;8.284;2023-07-24T01:14:46;99476.09;;;21.90;69.75
30708;BME280;17458;48.958;8.284;2023-07-24T01:17:31;99475.16;;;21.92;70.27
30708;BME280;17458;48.958;8.284;2023-07-24T01:20:17;99477.22;;;21.66;70.47
30708;BME280;17458;48.958;8.284;2023-07-24T01:26:00;99486.13;;;21.76;69.67
30708;BME280;17458;48.958;8.284;2023-07-24T01:28:46;99484.38;;;21.73;69.23
30708;BME280;17458;48.958;8.284;2023-07-24T01:31:30;99480.16;;;21.34;70.74
30708;BME280;17458;48.958;8.284;2023-07-24T01:34:14;99492.75;;;21.38;70.43
30708;BME280;17458;48.958;8.284;2023-07-24T01:36:58;99491.84;;;21.42;70.56
30708;BME280;17458;48.958;8.284;2023-07-24T01:39:43;99490.03;;;21.44;70.78
30708;BME280;17458;48.958;8.284;2023-07-24T01:42:29;99482.75;;;21.48;70.51
30708;BME280;17458;48.958;8.284;2023-07-24T01:45:13;99485.44;;;21.49;70.00
30708;BME280;17458;48.958;8.284;2023-07-24T01:47:56;99480.97;;;21.48;70.31
30708;BME280;17458;48.958;8.284;2023-07-24T01:50:40;99480.91;;;21.57;70.02
30708;BME280;17458;48.958;8.284;2023-07-24T01:53:24;99477.34;;;21.52;70.14
30708;BME280;17458;48.958;8.284;2023-07-24T01:56:08;99473.75;;;21.49;70.34
30708;BME280;17458;48.958;8.284;2023-07-24T01:58:52;99463.00;;;21.44;70.49
30708;BME280;17458;48.958;8.284;2023-07-24T02:01:36;99463.00;;;21.46;70.56
30708;BME280;17458;48.958;8.284;2023-07-24T02:04:20;99457.53;;;21.50;70.52
30708;BME280;17458;48.958;8.284;2023-07-24T02:07:07;99441.28;;;21.60;70.17
30708;BME280;17458;48.958;8.284;2023-07-24T02:09:51;99443.13;;;21.48;70.73
30708;BME280;17458;48.958;8.284;2023-07-24T02:12:34;99449.53;;;21.38;72.00
30708;BME280;17458;48.958;8.284;2023-07-24T02:15:18;99443.19;;;21.45;71.90
30708;BME280;17458;48.958;8.284;2023-07-24T02:18:02;99436.84;;;21.48;71.43
30708;BME280;17458;48.958;8.284;2023-07-24T02:20:51;99439.53;;;21.49;71.88
30708;BME280;17458;48.958;8.284;2023-07-24T02:23:36;99451.22;;;21.54;71.47
30708;BME280;17458;48.958;8.284;2023-07-24T02:26:19;99443.97;;;21.61;71.30
30708;BME280;17458;48.958;8.284;2023-07-24T02:29:03;99448.47;;;21.57;71.53
30708;BME280;17458;48.958;8.284;2023-07-24T02:31:47;99443.88;;;21.69;71.46
30708;BME280;17458;48.958;8.284;2023-07-24T02:34:33;99431.22;;;21.72;70.75
30708;BME280;17458;48.958;8.284;2023-07-24T02:37:18;99431.16;;;21.77;70.67
30708;BME280;17458;48.958;8.284;2023-07-24T02:40:02;99425.06;;;21.56;71.18
30708;BME280;17458;48.958;8.284;2023-07-24T02:42:46;99425.94;;;21.62;71.56
30708;BME280;17458;48.958;8.284;2023-07-24T02:45:34;99413.28;;;21.65;71.73
30708;BME280;17458;48.958;8.284;2023-07-24T02:48:18;99416.09;;;21.53;71.64
30708;BME280;17458;48.958;8.284;2023-07-24T02:51:02;99413.38;;;21.57;71.62
30708;BME280;17458;48.958;8.284;2023-07-24T02:53:45;99410.59;;;21.64;71.54
30708;BME280;17458;48.958;8.284;2023-07-24T02:56:29;99401.53;;;21.68;71.33
30708;BME280;17458;48.958;8.284;2023-07-24T02:59:14;99387.22;;;21.61;71.28
30708;BME280;17458;48.958;8.284;2023-07-24T03:01:58;99390.00;;;21.50;71.63
30708;BME280;17458;48.958;8.284;2023-07-24T03:04:42;99391.03;;;21.37;72.78
30708;BME280;17458;48.958;8.284;2023-07-24T03:07:26;99391.75;;;21.57;72.22
30708;BME280;17458;48.958;8.284;2023-07-24T03:10:10;99386.34;;;21.57;72.02
30708;BME280;17458;48.958;8.284;2023-07-24T03:12:53;99382.72;;;21.58;71.88
30708;BME280;17458;48.958;8.284;2023-07-24T03:15:38;99368.31;;;21.60;71.39
30708;BME280;17458;48.958;8.284;2023-07-24T03:18:22;99361.25;;;21.45;72.08
30708;BME280;17458;48.958;8.284;2023-07-24T03:21:08;99372.13;;;21.36;72.75
30708;BME280;17458;48.958;8.284;2023-07-24T03:23:52;99374.91;;;21.30;72.96
30708;BME280;17458;48.958;8.284;2023-07-24T03:26:37;99375.69;;;21.41;72.92
30708;BME280;17458;48.958;8.284;2023-07-24T03:29:20;99386.38;;;21.51;72.29
30708;BME280;17458;48.958;8.284;2023-07-24T03:32:05;99390.09;;;21.41;72.91
30708;BME280;17458;48.958;8.284;2023-07-24T03:34:49;99392.97;;;21.21;74.05
30708;BME280;17458;48.958;8.284;2023-07-24T03:37:34;99393.66;;;21.46;73.08
30708;BME280;17458;48.958;8.284;2023-07-24T03:40:18;99394.47;;;21.54;72.61
30708;BME280;17458;48.958;8.284;2023-07-24T03:43:02;99381.91;;;21.50;72.45
30708;BME280;17458;48.958;8.284;2023-07-24T03:45:46;99380.91;;;21.61;72.64
30708;BME280;17458;48.958;8.284;2023-07-24T03:48:30;99385.56;;;21.45;72.94
30708;BME280;17458;48.958;8.284;2023-07-24T03:51:14;99403.38;;;21.63;72.20
30708;BME280;17458;48.958;8.284;2023-07-24T03:53:58;99404.34;;;21.60;72.57
30708;BME280;17458;48.958;8.284;2023-07-24T03:56:42;99395.28;;;21.63;72.34
30708;BME280;17458;48.958;8.284;2023-07-24T03:59:26;99391.69;;;21.62;72.82
30708;BME280;17458;48.958;8.284;2023-07-24T04:02:10;99390.63;;;21.77;72.39
30708;BME280;17458;48.958;8.284;2023-07-24T04:04:55;99389.66;;;21.84;72.25
30708;BME280;17458;48.958;8.284;2023-07-24T04:07:39;99384.09;;;21.98;72.05
30708;BME280;17458;48.958;8.284;2023-07-24T04:10:23;99382.53;;;21.77;72.72
30708;BME280;17458;48.958;8.284;2023-07-24T04:13:07;99375.41;;;21.68;73.34
30708;BME280;17458;48.958;8.284;2023-07-24T04:15:51;99370.38;;;21.33;74.92
30708;BME280;17458;48.958;8.284;2023-07-24T04:18:35;99357.53;;;21.56;75.12
30708;BME280;17458;48.958;8.284;2023-07-24T04:21:18;99354.56;;;21.81;73.95
30708;BME280;17458;48.958;8.284;2023-07-24T04:24:03;99364.59;;;21.71;74.78
30708;BME280;17458;48.958;8.284;2023-07-24T04:26:47;99367.16;;;21.82;74.36
30708;BME280;17458;48.958;8.284;2023-07-24T04:29:31;99370.56;;;22.04;73.95
30708;BME280;17458;48.958;8.284;2023-07-24T04:32:15;99356.97;;;22.10;73.74
30708;BME280;17458;48.958;8.284;2023-07-24T04:34:59;99359.63;;;22.13;73.45
30708;BME280;17458;48.958;8.284;2023-07-24T04:37:43;99355.03;;;22.19;73.44
30708;BME280;17458;48.958;8.284;2023-07-24T04:40:27;99361.34;;;22.18;72.97
30708;BME280;17458;48.958;8.284;2023-07-24T04:43:11;99363.94;;;22.29;72.91
30708;BME280;17458;48.958;8.284;2023-07-24T04:45:55;99349.34;;;22.41;73.00
30708;BME280;17458;48.958;8.284;2023-07-24T04:48:39;99352.81;;;22.50;72.86
30708;BME280;17458;48.958;8.284;2023-07-24T04:51:23;99345.44;;;22.60;72.40
30708;BME280;17458;48.958;8.284;2023-07-24T04:54:07;99350.03;;;22.56;72.52
30708;BME280;17458;48.958;8.284;2023-07-24T04:56:51;99352.75;;;22.55;72.29
30708;BME280;17458;48.958;8.284;2023-07-24T04:59:34;99353.75;;;22.48;72.42
30708;BME280;17458;48.958;8.284;2023-07-24T05:02:18;99354.75;;;22.42;72.73
30708;BME280;17458;48.958;8.284;2023-07-24T05:05:03;99373.50;;;22.54;72.08
30708;BME280;17458;48.958;8.284;2023-07-24T05:07:47;99369.84;;;22.58;71.09
30708;BME280;17458;48.958;8.284;2023-07-24T05:10:35;99371.75;;;22.50;71.51
30708;BME280;17458;48.958;8.284;2023-07-24T05:16:03;99373.41;;;22.60;71.23
30708;BME280;17458;48.958;8.284;2023-07-24T05:18:47;99378.72;;;22.67;70.28
30708;BME280;17458;48.958;8.284;2023-07-24T05:21:31;99376.09;;;22.60;70.19
30708;BME280;17458;48.958;8.284;2023-07-24T05:24:15;99371.47;;;22.70;69.52
30708;BME280;17458;48.958;8.284;2023-07-24T05:26:59;99372.47;;;22.63;69.29
30708;BME280;17458;48.958;8.284;2023-07-24T05:29:44;99384.03;;;22.74;69.39
30708;BME280;17458;48.958;8.284;2023-07-24T05:32:28;99391.84;;;22.98;69.39
30708;BME280;17458;48.958;8.284;2023-07-24T05:35:12;99397.31;;;22.94;68.40
30708;BME280;17458;48.958;8.284;2023-07-24T05:37:56;99399.94;;;23.00;68.09
30708;BME280;17458;48.958;8.284;2023-07-24T05:40:40;99400.00;;;22.95;68.43
30708;BME280;17458;48.958;8.284;2023-07-24T05:43:24;99406.19;;;22.38;70.48
30708;BME280;17458;48.958;8.284;2023-07-24T05:46:08;99412.44;;;22.43;70.27
30708;BME280;17458;48.958;8.284;2023-07-24T05:48:52;99413.31;;;22.45;70.42
30708;BME280;17458;48.958;8.284;2023-07-24T05:51:36;99402.69;;;22.31;71.29
30708;BME280;17458;48.958;8.284;2023-07-24T05:54:20;99407.84;;;22.49;70.35
30708;BME280;17458;48.958;8.284;2023-07-24T05:57:05;99408.31;;;22.82;69.50
30708;BME280;17458;48.958;8.284;2023-07-24T05:59:49;99407.19;;;22.98;69.18
30708;BME280;17458;48.958;8.284;2023-07-24T06:02:34;99410.78;;;22.98;68.50
30708;BME280;17458;48.958;8.284;2023-07-24T06:05:19;99417.31;;;22.85;69.38
30708;BME280;17458;48.958;8.284;2023-07-24T06:08:03;99421.66;;;22.95;68.96
30708;BME280;17458;48.958;8.284;2023-07-24T06:10:49;99407.19;;;22.98;68.78
30708;BME280;17458;48.958;8.284;2023-07-24T06:13:33;99413.06;;;23.26;67.67
30708;BME280;17458;48.958;8.284;2023-07-24T06:16:17;99419.16;;;23.40;67.55
30708;BME280;17458;48.958;8.284;2023-07-24T06:19:01;99414.66;;;23.39;67.51
30708;BME280;17458;48.958;8.284;2023-07-24T06:21:45;99417.03;;;23.02;68.00
30708;BME280;17458;48.958;8.284;2023-07-24T06:24:28;99424.59;;;23.39;67.72
30708;BME280;17458;48.958;8.284;2023-07-24T06:27:12;99420.78;;;23.52;67.21
30708;BME280;17458;48.958;8.284;2023-07-24T06:29:56;99432.22;;;23.71;67.19
30708;BME280;17458;48.958;8.284;2023-07-24T06:32:40;99429.63;;;23.61;65.84
30708;BME280;17458;48.958;8.284;2023-07-24T06:35:24;99435.22;;;23.52;66.13
30708;BME280;17458;48.958;8.284;2023-07-24T06:38:08;99430.47;;;23.65;66.03
30708;BME280;17458;48.958;8.284;2023-07-24T06:40:52;99430.22;;;23.80;65.59
30708;BME280;17458;48.958;8.284;2023-07-24T06:43:36;99417.09;;;23.57;65.73
30708;BME280;17458;48.958;8.284;2023-07-24T06:46:20;99429.47;;;23.72;65.33
30708;BME280;17458;48.958;8.284;2023-07-24T06:49:04;99408.53;;;23.80;65.13
30708;BME280;17458;48.958;8.284;2023-07-24T06:51:48;99408.16;;;24.00;64.17
30708;BME280;17458;48.958;8.284;2023-07-24T06:54:31;99404.00;;;23.81;64.52
30708;BME280;17458;48.958;8.284;2023-07-24T06:57:15;99411.44;;;23.70;63.68
30708;BME280;17458;48.958;8.284;2023-07-24T06:59:59;99407.16;;;23.56;64.12
30708;BME280;17458;48.958;8.284;2023-07-24T07:02:43;99429.03;;;23.43;66.02
30708;BME280;17458;48.958;8.284;2023-07-24T07:05:27;99405.16;;;23.12;68.01
30708;BME280;17458;48.958;8.284;2023-07-24T07:08:11;99421.63;;;22.97;69.51
30708;BME280;17458;48.958;8.284;2023-07-24T07:10:56;99422.53;;;22.28;71.66
30708;BME280;17458;48.958;8.284;2023-07-24T07:13:40;99420.97;;;22.80;69.30
30708;BME280;17458;48.958;8.284;2023-07-24T07:16:24;99422.09;;;22.60;70.11
30708;BME280;17458;48.958;8.284;2023-07-24T07:19:08;99427.91;;;23.01;71.25
30708;BME280;17458;48.958;8.284;2023-07-24T07:21:55;99422.38;;;23.08;70.89
30708;BME280;17458;48.958;8.284;2023-07-24T07:24:39;99428.31;;;22.69;72.45
30708;BME280;17458;48.958;8.284;2023-07-24T07:27:23;99427.22;;;22.86;72.02
30708;BME280;17458;48.958;8.284;2023-07-24T07:30:07;99433.81;;;22.62;72.59
30708;BME280;17458;48.958;8.284;2023-07-24T07:32:52;99447.97;;;22.86;72.50
30708;BME280;17458;48.958;8.284;2023-07-24T07:35:36;99471.44;;;22.87;72.10
30708;BME280;17458;48.958;8.284;2023-07-24T07:38:21;99467.00;;;22.75;72.62
30708;BME280;17458;48.958;8.284;2023-07-24T07:41:06;99470.53;;;22.86;72.66
30708;BME280;17458;48.958;8.284;2023-07-24T07:43:50;99466.13;;;22.76;73.82
30708;BME280;17458;48.958;8.284;2023-07-24T07:46:34;99460.16;;;22.48;74.09
30708;BME280;17458;48.958;8.284;2023-07-24T07:49:18;99457.41;;;22.51;74.65
30708;BME280;17458;48.958;8.284;2023-07-24T07:52:02;99447.97;;;22.86;73.56
30708;BME280;17458;48.958;8.284;2023-07-24T07:54:50;99450.03;;;22.64;73.70
30708;BME280;17458;48.958;8.284;2023-07-24T07:57:35;99461.63;;;22.77;74.16
30708;BME280;17458;48.958;8.284;2023-07-24T08:00:19;99449.78;;;22.87;73.20
30708;BME280;17458;48.958;8.284;2023-07-24T08:03:04;99437.00;;;22.96;72.61
30708;BME280;17458;48.958;8.284;2023-07-24T08:05:48;99424.50;;;22.88;73.29
30708;BME280;17458;48.958;8.284;2023-07-24T08:08:31;99422.31;;;23.11;73.29
30708;BME280;17458;48.958;8.284;2023-07-24T08:11:16;99422.06;;;23.28;73.41
30708;BME280;17458;48.958;8.284;2023-07-24T08:13:59;99413.38;;;23.05;74.47
30708;BME280;17458;48.958;8.284;2023-07-24T08:16:43;99412.22;;;23.22;73.26
30708;BME280;17458;48.958;8.284;2023-07-24T08:19:28;99397.03;;;23.12;74.01
30708;BME280;17458;48.958;8.284;2023-07-24T08:22:12;99396.81;;;23.26;74.11
30708;BME280;17458;48.958;8.284;2023-07-24T08:24:56;99394.38;;;23.63;73.27
30708;BME280;17458;48.958;8.284;2023-07-24T08:27:40;99397.00;;;23.67;72.13
30708;BME280;17458;48.958;8.284;2023-07-24T08:30:24;99403.84;;;24.36;71.70
30708;BME280;17458;48.958;8.284;2023-07-24T08:33:08;99406.78;;;24.25;69.85
30708;BME280;17458;48.958;8.284;2023-07-24T08:36:05;99403.00;;;24.32;70.93
30708;BME280;17458;48.958;8.284;2023-07-24T08:38:50;99403.50;;;24.91;70.99
30708;BME280;17458;48.958;8.284;2023-07-24T08:41:34;99399.56;;;25.06;69.12
30708;BME280;17458;48.958;8.284;2023-07-24T08:44:20;99398.19;;;25.25;69.54
30708;BME280;17458;48.958;8.284;2023-07-24T08:47:06;99401.69;;;25.67;68.05
30708;BME280;17458;48.958;8.284;2023-07-24T08:49:53;99402.81;;;25.57;69.36
30708;BME280;17458;48.958;8.284;2023-07-24T08:52:39;99397.91;;;26.05;65.54
30708;BME280;17458;48.958;8.284;2023-07-24T08:55:24;99399.56;;;26.11;65.76
30708;BME280;17458;48.958;8.284;2023-07-24T08:58:08;99399.59;;;26.42;64.91
30708;BME280;17458;48.958;8.284;2023-07-24T09:00:52;99399.03;;;26.31;65.47
30708;BME280;17458;48.958;8.284;2023-07-24T09:03:36;99405.38;;;26.31;65.73
30708;BME280;17458;48.958;8.284;2023-07-24T09:06:20;99405.84;;;26.13;64.13
30708;BME280;17458;48.958;8.284;2023-07-24T09:09:14;99414.72;;;25.87;65.43
30708;BME280;17458;48.958;8.284;2023-07-24T09:11:59;99414.25;;;26.05;65.13
30708;BME280;17458;48.958;8.284;2023-07-24T09:14:44;99430.72;;;25.99;65.29
30708;BME280;17458;48.958;8.284;2023-07-24T09:17:29;99426.91;;;26.70;65.83
30708;BME280;17458;48.958;8.284;2023-07-24T09:20:13;99429.16;;;26.85;64.96
30708;BME280;17458;48.958;8.284;2023-07-24T09:22:57;99429.88;;;26.92;63.67
30708;BME280;17458;48.958;8.284;2023-07-24T09:25:42;99440.03;;;27.16;63.34
30708;BME280;17458;48.958;8.284;2023-07-24T09:28:27;99430.59;;;26.67;61.94
30708;BME280;17458;48.958;8.284;2023-07-24T09:31:11;99429.53;;;25.77;65.12
30708;BME280;17458;48.958;8.284;2023-07-24T09:33:55;99423.59;;;25.60;65.21
30708;BME280;17458;48.958;8.284;2023-07-24T09:36:39;99424.22;;;25.71;65.43
30708;BME280;17458;48.958;8.284;2023-07-24T09:39:30;99430.84;;;25.24;66.09
30708;BME280;17458;48.958;8.284;2023-07-24T09:42:14;99430.31;;;25.08;66.36
30708;BME280;17458;48.958;8.284;2023-07-24T09:44:58;99438.03;;;24.85;67.44
30708;BME280;17458;48.958;8.284;2023-07-24T09:47:43;99425.81;;;25.07;66.82
30708;BME280;17458;48.958;8.284;2023-07-24T09:50:27;99421.53;;;24.97;66.89
30708;BME280;17458;48.958;8.284;2023-07-24T09:53:34;99415.03;;;25.02;67.64
30708;BME280;17458;48.958;8.284;2023-07-24T09:56:22;99414.06;;;24.65;68.92
30708;BME280;17458;48.958;8.284;2023-07-24T09:59:09;99400.47;;;24.66;68.91
30708;BME280;17458;48.958;8.284;2023-07-24T10:01:53;99406.84;;;24.64;69.67
30708;BME280;17458;48.958;8.284;2023-07-24T10:04:37;99407.84;;;24.58;71.09
30708;BME280;17458;48.958;8.284;2023-07-24T10:07:24;99408.53;;;24.69;71.05
30708;BME280;17458;48.958;8.284;2023-07-24T10:10:08;99416.94;;;24.57;71.72
30708;BME280;17458;48.958;8.284;2023-07-24T10:12:52;99413.84;;;24.32;73.13
30708;BME280;17458;48.958;8.284;2023-07-24T10:15:37;99418.53;;;24.26;73.68
30708;BME280;17458;48.958;8.284;2023-07-24T10:18:29;99409.91;;;24.47;73.96
30708;BME280;17458;48.958;8.284;2023-07-24T10:21:16;99401.34;;;23.78;75.55
30708;BME280;17458;48.958;8.284;2023-07-24T10:24:00;99410.63;;;24.12;74.95
30708;BME280;17458;48.958;8.284;2023-07-24T10:26:44;99420.44;;;23.72;76.26
30708;BME280;17458;48.958;8.284;2023-07-24T10:29:28;99406.56;;;23.88;76.00
30708;BME280;17458;48.958;8.284;2023-07-24T10:32:18;99390.59;;;24.18;74.28
30708;BME280;17458;48.958;8.284;2023-07-24T10:35:08;99400.97;;;23.97;75.06
30708;BME280;17458;48.958;8.284;2023-07-24T10:37:59;99389.84;;;23.63;77.06
30708;BME280;17458;48.958;8.284;2023-07-24T10:40:46;99378.56;;;23.36;77.41
30708;BME280;17458;48.958;8.284;2023-07-24T10:43:49;99385.59;;;23.46;77.56
30708;BME280;17458;48.958;8.284;2023-07-24T10:46:38;99375.00;;;23.32;77.17
30708;BME280;17458;48.958;8.284;2023-07-24T10:49:22;99387.44;;;23.45;75.67
30708;BME280;17458;48.958;8.284;2023-07-24T10:52:06;99362.63;;;23.17;75.91
30708;BME280;17458;48.958;8.284;2023-07-24T10:54:52;99361.59;;;23.77;74.34
30708;BME280;17458;48.958;8.284;2023-07-24T10:57:36;99354.53;;;23.68;74.13
30708;BME280;17458;48.958;8.284;2023-07-24T11:00:20;99323.97;;;23.60;74.38
30708;BME280;17458;48.958;8.284;2023-07-24T11:03:04;99314.50;;;23.82;73.63
30708;BME280;17458;48.958;8.284;2023-07-24T11:05:48;99320.22;;;23.67;73.84
30708;BME280;17458;48.958;8.284;2023-07-24T11:08:32;99325.00;;;23.53;75.22
30708;BME280;17458;48.958;8.284;2023-07-24T11:11:18;99317.50;;;24.12;73.35
30708;BME280;17458;48.958;8.284;2023-07-24T11:14:02;99320.13;;;24.15;72.34
30708;BME280;17458;48.958;8.284;2023-07-24T11:16:50;99324.09;;;24.00;72.22
30708;BME280;17458;48.958;8.284;2023-07-24T11:19:34;99329.38;;;24.04;73.88
30708;BME280;17458;48.958;8.284;2023-07-24T11:22:21;99325.53;;;24.58;71.17
30708;BME280;17458;48.958;8.284;2023-07-24T11:25:06;99329.13;;;25.34;69.24
30708;BME280;17458;48.958;8.284;2023-07-24T11:27:50;99338.84;;;25.42;67.91
30708;BME280;17458;48.958;8.284;2023-07-24T11:30:34;99356.06;;;25.43;67.74
30708;BME280;17458;48.958;8.284;2023-07-24T11:33:20;99361.56;;;25.75;66.72
30708;BME280;17458;48.958;8.284;2023-07-24T11:36:05;99355.09;;;25.46;66.67
30708;BME280;17458;48.958;8.284;2023-07-24T11:38:49;99354.34;;;25.40;66.75
30708;BME280;17458;48.958;8.284;2023-07-24T11:41:33;99349.97;;;25.33;66.58
30708;BME280;17458;48.958;8.284;2023-07-24T11:44:27;99355.13;;;25.44;65.29
30708;BME280;17458;48.958;8.284;2023-07-24T11:47:11;99366.19;;;25.72;65.58
30708;BME280;17458;48.958;8.284;2023-07-24T11:49:59;99367.53;;;25.20;65.45
30708;BME280;17458;48.958;8.284;2023-07-24T11:52:48;99363.78;;;25.26;65.23
30708;BME280;17458;48.958;8.284;2023-07-24T11:55:32;99365.72;;;25.19;66.09
30708;BME280;17458;48.958;8.284;2023-07-24T11:58:16;99362.94;;;25.56;64.12
30708;BME280;17458;48.958;8.284;2023-07-24T12:01:01;99365.44;;;24.94;64.93
30708;BME280;17458;48.958;8.284;2023-07-24T12:03:45;99376.03;;;24.66;65.89
30708;BME280;17458;48.958;8.284;2023-07-24T12:06:30;99377.22;;;24.53;64.55
30708;BME280;17458;48.958;8.284;2023-07-24T12:09:15;99369.75;;;24.63;64.28
30708;BME280;17458;48.958;8.284;2023-07-24T12:11:59;99371.56;;;25.39;63.46
30708;BME280;17458;48.958;8.284;2023-07-24T12:14:43;99359.09;;;25.31;63.03
30708;BME280;17458;48.958;8.284;2023-07-24T12:17:27;99360.31;;;25.19;62.04
30708;BME280;17458;48.958;8.284;2023-07-24T12:20:11;99343.97;;;25.21;61.09
30708;BME280;17458;48.958;8.284;2023-07-24T12:22:55;99344.44;;;25.38;61.71
30708;BME280;17458;48.958;8.284;2023-07-24T12:25:40;99345.81;;;25.88;61.54
30708;BME280;17458;48.958;8.284;2023-07-24T12:28:24;99333.44;;;25.76;60.22
30708;BME280;17458;48.958;8.284;2023-07-24T12:31:08;99328.56;;;26.20;59.48
30708;BME280;17458;48.958;8.284;2023-07-24T12:33:52;99320.03;;;26.01;58.96
30708;BME280;17458;48.958;8.284;2023-07-24T12:36:36;99319.06;;;26.92;57.75
30708;BME280;17458;48.958;8.284;2023-07-24T12:39:20;99320.94;;;27.18;56.24
30708;BME280;17458;48.958;8.284;2023-07-24T12:42:04;99315.09;;;26.74;54.96
30708;BME280;17458;48.958;8.284;2023-07-24T12:44:49;99318.16;;;26.93;54.50
30708;BME280;17458;48.958;8.284;2023-07-24T12:47:33;99307.34;;;26.00;54.96
30708;BME280;17458;48.958;8.284;2023-07-24T12:50:17;99304.00;;;25.58;57.25
30708;BME280;17458;48.958;8.284;2023-07-24T12:53:01;99309.13;;;25.70;56.21
30708;BME280;17458;48.958;8.284;2023-07-24T12:55:45;99315.84;;;25.90;55.65
30708;BME280;17458;48.958;8.284;2023-07-24T12:58:29;99290.25;;;26.26;56.63
30708;BME280;17458;48.958;8.284;2023-07-24T13:01:13;99280.56;;;25.87;55.60
30708;BME280;17458;48.958;8.284;2023-07-24T13:03:57;99302.72;;;25.73;55.74
30708;BME280;17458;48.958;8.284;2023-07-24T13:06:41;99289.84;;;25.80;55.07
30708;BME280;17458;48.958;8.284;2023-07-24T13:09:26;99278.59;;;25.92;55.95
30708;BME280;17458;48.958;8.284;2023-07-24T13:12:11;99273.59;;;26.38;54.42
30708;BME280;17458;48.958;8.284;2023-07-24T13:14:55;99281.44;;;27.05;54.65
30708;BME280;17458;48.958;8.284;2023-07-24T13:17:39;99271.38;;;26.79;53.71
30708;BME280;17458;48.958;8.284;2023-07-24T13:20:24;99267.16;;;26.97;52.87
30708;BME280;17458;48.958;8.284;2023-07-24T13:23:08;99271.25;;;26.82;53.30
30708;BME280;17458;48.958;8.284;2023-07-24T13:25:52;99249.34;;;26.59;53.77
30708;BME280;17458;48.958;8.284;2023-07-24T13:28:37;99249.38;;;27.11;53.82
30708;BME280;17458;48.958;8.284;2023-07-24T13:31:21;99238.53;;;27.36;52.89
30708;BME280;17458;48.958;8.284;2023-07-24T13:34:06;99226.03;;;27.04;53.37
30708;BME280;17458;48.958;8.284;2023-07-24T13:36:52;99227.13;;;27.50;52.09
30708;BME280;17458;48.958;8.284;2023-07-24T13:39:36;99210.69;;;27.51;51.35
30708;BME280;17458;48.958;8.284;2023-07-24T13:42:19;99216.63;;;27.87;52.25
30708;BME280;17458;48.958;8.284;2023-07-24T13:45:04;99223.75;;;27.17;51.17
30708;BME280;17458;48.958;8.284;2023-07-24T13:47:48;99221.44;;;27.31;51.22
30708;BME280;17458;48.958;8.284;2023-07-24T13:50:32;99219.59;;;27.32;51.09
30708;BME280;17458;48.958;8.284;2023-07-24T13:53:16;99222.22;;;27.84;51.05
30708;BME280;17458;48.958;8.284;2023-07-24T13:56:00;99210.97;;;27.19;50.39
30708;BME280;17458;48.958;8.284;2023-07-24T13:58:44;99210.59;;;27.30;50.65
30708;BME280;17458;48.958;8.284;2023-07-24T14:01:28;99216.38;;;27.21;50.46
30708;BME280;17458;48.958;8.284;2023-07-24T14:04:12;99199.03;;;27.23;51.51
30708;BME280;17458;48.958;8.284;2023-07-24T14:06:58;99182.38;;;27.31;50.79
30708;BME280;17458;48.958;8.284;2023-07-24T14:09:42;99174.16;;;27.32;50.50
30708;BME280;17458;48.958;8.284;2023-07-24T14:12:26;99181.38;;;27.81;50.75
30708;BME280;17458;48.958;8.284;2023-07-24T14:15:10;99178.38;;;27.89;50.77
30708;BME280;17458;48.958;8.284;2023-07-24T14:17:53;99166.75;;;27.61;50.97
30708;BME280;17458;48.958;8.284;2023-07-24T14:20:37;99176.41;;;28.16;50.98
30708;BME280;17458;48.958;8.284;2023-07-24T14:23:24;99186.66;;;28.09;51.05
30708;BME280;17458;48.958;8.284;2023-07-24T14:26:08;99176.09;;;28.67;51.13
30708;BME280;17458;48.958;8.284;2023-07-24T14:28:52;99190.78;;;28.65;50.73
30708;BME280;17458;48.958;8.284;2023-07-24T14:31:36;99195.19;;;27.78;52.31
30708;BME280;17458;48.958;8.284;2023-07-24T14:34:21;99197.53;;;28.11;52.06
30708;BME280;17458;48.958;8.284;2023-07-24T14:37:05;99193.19;;;27.59;53.96